sensor_id;sensor_type;location;lat;lon;timestamp;temperature;humidity
19044;DHT22;9654;52.302;8.120;2024-01-15T00:00:19;1.30;99.90
19044;DHT22;9654;52.302;8.120;2024-01-15T00:02:48;1.30;99.90
19044;DHT22;9654;52.302;8.120;2024-01-15T00:05:14;1.30;99.90
19044;DHT22;9654;52.302;8.120;2024-01-15T00:07:41;1.30;99.90
19044;DHT22;9654;52.302;8.120;2024-01-15T00:10:08;1.20;99.90
19044;DHT22;9654;52.302;8.120;2024-01-15T00:12:35;1.20;99.90
19044;DHT22;9654;52.302;8.120;2024-01-15T00:15:03;1.20;99.90
19044;DHT22;9654;52.302;8.120;2024-01-15T00:17:30;1.30;99.90
19044;DHT22;9654;52.302;8.120;2024-01-15T00:19:58;1.30;99.90
19044;DHT22;9654;52.302;8.120;2024-01-15T00:22:25;1.30;99.90
19044;DHT22;9654;52.302;8.120;2024-01-15T00:24:52;1.30;99.90
19044;DHT22;9654;52.302;8.120;2024-01-15T00:27:19;1.40;99.90
19044;DHT22;9654;52.302;8.120;2024-01-15T00:29:46;1.40;99.90
19044;DHT22;9654;52.302;8.120;2024-01-15T00:32:13;1.40;99.90
19044;DHT22;9654;52.302;8.120;2024-01-15T00:34:40;1.40;99.90
19044;DHT22;9654;52.302;8.120;2024-01-15T00:37:11;1.40;99.90
19044;DHT22;9654;52.302;8.120;2024-01-15T00:39:38;1.40;99.90
19044;DHT22;9654;52.302;8.120;2024-01-15T00:42:05;1.40;99.90
19044;DHT22;9654;52.302;8.120;2024-01-15T00:44:32;1.40;99.90
19044;DHT22;9654;52.302;8.120;2024-01-15T00:46:58;1.30;99.90
19044;DHT22;9654;52.302;8.120;2024-01-15T00:49:27;1.30;99.90
19044;DHT22;9654;52.302;8.120;2024-01-15T00:51:54;1.30;99.90
19044;DHT22;9654;52.302;8.120;2024-01-15T00:54:22;1.30;99.90
19044;DHT22;9654;52.302;8.120;2024-01-15T00:56:49;1.30;99.90
19044;DHT22;9654;52.302;8.120;2024-01-15T00:59:16;1.20;99.90
19044;DHT22;9654;52.302;8.120;2024-01-15T01:01:43;1.20;99.90
19044;DHT22;9654;52.302;8.120;2024-01-15T01:04:11;1.20;99.90
19044;DHT22;9654;52.302;8.120;2024-01-15T01:06:38;1.20;99.90
19044;DHT22;9654;52.302;8.120;2024-01-15T01:09:05;1.20;99.90
19044;DHT22;9654;52.302;8.120;2024-01-15T01:11:34;1.20;99.90
19044;DHT22;9654;52.302;8.120;2024-01-15T01:14:00;1.20;99.90
19044;DHT22;9654;52.302;8.120;2024-01-15T01:16:28;1.20;99.90
19044;DHT22;9654;52.302;8.120;2024-01-15T01:18:56;1.20;99.90
19044;DHT22;9654;52.302;8.120;2024-01-15T01:21:23;1.20;99.90
19044;DHT22;9654;52.302;8.120;2024-01-15T01:23:50;1.20;99.90
19044;DHT22;9654;52.302;8.120;2024-01-15T01:26:17;1.20;99.90
19044;DHT22;9654;52.302;8.120;2024-01-15T01:28:45;1.20;99.90
19044;DHT22;9654;52.302;8.120;2024-01-15T01:31:12;1.20;99.90
19044;DHT22;9654;52.302;8.120;2024-01-15T01:33:39;1.20;99.90
19044;DHT22;9654;52.302;8.120;2024-01-15T01:36:07;1.20;99.90
19044;DHT22;9654;52.302;8.120;2024-01-15T01:38:34;1.20;99.90
19044;DHT22;9654;52.302;8.120;2024-01-15T01:41:02;1.20;99.90
19044;DHT22;9654;52.302;8.120;2024-01-15T01:43:28;1.20;99.90
19044;DHT22;9654;52.302;8.120;2024-01-15T01:45:57;1.10;99.90
19044;DHT22;9654;52.302;8.120;2024-01-15T01:48:25;1.10;99.90
19044;DHT22;9654;52.302;8.120;2024-01-15T01:50:53;1.10;99.90
19044;DHT22;9654;52.302;8.120;2024-01-15T01:53:21;1.10;99.90
19044;DHT22;9654;52.302;8.120;2024-01-15T01:55:48;1.10;99.90
19044;DHT22;9654;52.302;8.120;2024-01-15T01:58:16;1.10;99.90
19044;DHT22;9654;52.302;8.120;2024-01-15T02:00:43;1.10;99.90
19044;DHT22;9654;52.302;8.120;2024-01-15T02:03:12;1.10;99.90
19044;DHT22;9654;52.302;8.120;2024-01-15T02:05:39;1.00;99.90
19044;DHT22;9654;52.302;8.120;2024-01-15T02:08:06;1.10;99.90
19044;DHT22;9654;52.302;8.120;2024-01-15T02:10:33;1.10;99.90
19044;DHT22;9654;52.302;8.120;2024-01-15T02:13:00;1.00;99.90
19044;DHT22;9654;52.302;8.120;2024-01-15T02:15:27;1.10;99.90
19044;DHT22;9654;52.302;8.120;2024-01-15T02:17:58;1.00;99.90
19044;DHT22;9654;52.302;8.120;2024-01-15T02:20:26;1.00;99.90
19044;DHT22;9654;52.302;8.120;2024-01-15T02:22:52;1.00;99.90
19044;DHT22;9654;52.302;8.120;2024-01-15T02:25:21;1.00;99.90
19044;DHT22;9654;52.302;8.120;2024-01-15T02:27:48;1.00;99.90
19044;DHT22;9654;52.302;8.120;2024-01-15T02:30:15;1.00;99.90
19044;DHT22;9654;52.302;8.120;2024-01-15T02:32:43;1.00;99.90
19044;DHT22;9654;52.302;8.120;2024-01-15T02:35:10;1.00;99.90
19044;DHT22;9654;52.302;8.120;2024-01-15T02:37:37;1.10;99.90
19044;DHT22;9654;52.302;8.120;2024-01-15T02:40:04;1.10;99.90
19044;DHT22;9654;52.302;8.120;2024-01-15T02:42:33;1.10;99.90
19044;DHT22;9654;52.302;8.120;2024-01-15T02:45:00;1.10;99.90
19044;DHT22;9654;52.302;8.120;2024-01-15T02:47:27;1.10;99.90
19044;DHT22;9654;52.302;8.120;2024-01-15T02:49:53;1.10;99.90
19044;DHT22;9654;52.302;8.120;2024-01-15T02:52:19;1.10;99.90
19044;DHT22;9654;52.302;8.120;2024-01-15T02:54:46;1.10;99.90
19044;DHT22;9654;52.302;8.120;2024-01-15T02:57:13;1.10;99.90
19044;DHT22;9654;52.302;8.120;2024-01-15T02:59:41;1.20;99.90
19044;DHT22;9654;52.302;8.120;2024-01-15T03:02:08;1.20;99.90
19044;DHT22;9654;52.302;8.120;2024-01-15T03:04:35;1.20;99.90
19044;DHT22;9654;52.302;8.120;2024-01-15T03:07:02;1.20;99.90
19044;DHT22;9654;52.302;8.120;2024-01-15T03:09:29;1.20;99.90
19044;DHT22;9654;52.302;8.120;2024-01-15T03:11:56;1.30;99.90
19044;DHT22;9654;52.302;8.120;2024-01-15T03:14:22;1.30;99.90
19044;DHT22;9654;52.302;8.120;2024-01-15T03:16:52;1.30;99.90
19044;DHT22;9654;52.302;8.120;2024-01-15T03:19:19;1.30;99.90
19044;DHT22;9654;52.302;8.120;2024-01-15T03:21:46;1.30;99.90
19044;DHT22;9654;52.302;8.120;2024-01-15T03:24:13;1.30;99.90
19044;DHT22;9654;52.302;8.120;2024-01-15T03:26:40;1.30;99.90
19044;DHT22;9654;52.302;8.120;2024-01-15T03:29:07;1.30;99.90
19044;DHT22;9654;52.302;8.120;2024-01-15T03:31:34;1.30;99.90
19044;DHT22;9654;52.302;8.120;2024-01-15T03:34:02;1.30;99.90
19044;DHT22;9654;52.302;8.120;2024-01-15T03:36:29;1.30;99.90
19044;DHT22;9654;52.302;8.120;2024-01-15T03:38:57;1.30;99.90
19044;DHT22;9654;52.302;8.120;2024-01-15T03:41:24;1.30;99.90
19044;DHT22;9654;52.302;8.120;2024-01-15T03:43:50;1.30;99.90
19044;DHT22;9654;52.302;8.120;2024-01-15T03:46:17;1.30;99.90
19044;DHT22;9654;52.302;8.120;2024-01-15T03:48:44;1.30;99.90
19044;DHT22;9654;52.302;8.120;2024-01-15T03:51:12;1.40;99.90
19044;DHT22;9654;52.302;8.120;2024-01-15T03:53:42;1.30;99.90
19044;DHT22;9654;52.302;8.120;2024-01-15T03:56:08;1.30;99.90
19044;DHT22;9654;52.302;8.120;2024-01-15T03:58:35;1.30;99.90
19044;DHT22;9654;52.302;8.120;2024-01-15T04:01:07;1.40;99.90
19044;DHT22;9654;52.302;8.120;2024-01-15T04:03:34;1.40;99.90
19044;DHT22;9654;52.302;8.120;2024-01-15T04:06:01;1.40;99.90
19044;DHT22;9654;52.302;8.120;2024-01-15T04:08:29;1.40;99.90
19044;DHT22;9654;52.302;8.120;2024-01-15T04:10:56;1.40;99.90
19044;DHT22;9654;52.302;8.120;2024-01-15T04:13:23;1.40;99.90
19044;DHT22;9654;52.302;8.120;2024-01-15T04:15:49;1.40;99.90
19044;DHT22;9654;52.302;8.120;2024-01-15T04:18:16;1.40;99.90
19044;DHT22;9654;52.302;8.120;2024-01-15T04:20:44;1.40;99.90
19044;DHT22;9654;52.302;8.120;2024-01-15T04:23:11;1.40;99.90
19044;DHT22;9654;52.302;8.120;2024-01-15T04:25:40;1.40;99.90
19044;DHT22;9654;52.302;8.120;2024-01-15T04:28:08;1.40;99.90
19044;DHT22;9654;52.302;8.120;2024-01-15T04:30:35;1.40;99.90
19044;DHT22;9654;52.302;8.120;2024-01-15T04:33:02;1.40;99.90
19044;DHT22;9654;52.302;8.120;2024-01-15T04:35:29;1.40;99.90
19044;DHT22;9654;52.302;8.120;2024-01-15T04:37:56;1.30;99.90
19044;DHT22;9654;52.302;8.120;2024-01-15T04:40:23;1.40;99.90
19044;DHT22;9654;52.302;8.120;2024-01-15T04:42:54;1.30;99.90
19044;DHT22;9654;52.302;8.120;2024-01-15T04:45:21;1.30;99.90
19044;DHT22;9654;52.302;8.120;2024-01-15T04:47:53;1.40;99.90
19044;DHT22;9654;52.302;8.120;2024-01-15T04:50:21;1.30;99.90
19044;DHT22;9654;52.302;8.120;2024-01-15T04:52:48;1.30;99.90
19044;DHT22;9654;52.302;8.120;2024-01-15T04:55:15;1.30;99.90
19044;DHT22;9654;52.302;8.120;2024-01-15T04:57:42;1.30;99.90
19044;DHT22;9654;52.302;8.120;2024-01-15T05:00:12;1.30;99.90
19044;DHT22;9654;52.302;8.120;2024-01-15T05:02:39;1.30;99.90
19044;DHT22;9654;52.302;8.120;2024-01-15T05:05:06;1.30;99.90
19044;DHT22;9654;52.302;8.120;2024-01-15T05:07:33;1.30;99.90
19044;DHT22;9654;52.302;8.120;2024-01-15T05:10:00;1.30;99.90
19044;DHT22;9654;52.302;8.120;2024-01-15T05:12:27;1.30;99.90
19044;DHT22;9654;52.302;8.120;2024-01-15T05:14:55;1.20;99.90
19044;DHT22;9654;52.302;8.120;2024-01-15T05:17:23;1.20;99.90
19044;DHT22;9654;52.302;8.120;2024-01-15T05:19:50;1.20;99.90
19044;DHT22;9654;52.302;8.120;2024-01-15T05:22:17;1.20;99.90
19044;DHT22;9654;52.302;8.120;2024-01-15T05:24:43;1.20;99.90
19044;DHT22;9654;52.302;8.120;2024-01-15T05:27:10;1.20;99.90
19044;DHT22;9654;52.302;8.120;2024-01-15T05:29:37;1.20;99.90
19044;DHT22;9654;52.302;8.120;2024-01-15T05:32:04;1.20;99.90
19044;DHT22;9654;52.302;8.120;2024-01-15T05:34:32;1.20;99.90
19044;DHT22;9654;52.302;8.120;2024-01-15T05:36:59;1.30;99.90
19044;DHT22;9654;52.302;8.120;2024-01-15T05:39:26;1.30;99.90
19044;DHT22;9654;52.302;8.120;2024-01-15T05:41:53;1.30;99.90
19044;DHT22;9654;52.302;8.120;2024-01-15T05:44:19;1.30;99.90
19044;DHT22;9654;52.302;8.120;2024-01-15T05:46:46;1.30;99.90
19044;DHT22;9654;52.302;8.120;2024-01-15T05:49:13;1.30;99.90
19044;DHT22;9654;52.302;8.120;2024-01-15T05:51:41;1.30;99.90
19044;DHT22;9654;52.302;8.120;2024-01-15T05:54:08;1.30;99.90
19044;DHT22;9654;52.302;8.120;2024-01-15T05:56:35;1.30;99.90
19044;DHT22;9654;52.302;8.120;2024-01-15T05:59:01;1.20;99.90
19044;DHT22;9654;52.302;8.120;2024-01-15T06:01:28;1.20;99.90
19044;DHT22;9654;52.302;8.120;2024-01-15T06:03:55;1.20;99.90
19044;DHT22;9654;52.302;8.120;2024-01-15T06:06:22;1.10;99.90
19044;DHT22;9654;52.302;8.120;2024-01-15T06:08:50;1.10;99.90
19044;DHT22;9654;52.302;8.120;2024-01-15T06:11:17;1.10;99.90
19044;DHT22;9654;52.302;8.120;2024-01-15T06:13:44;1.10;99.90
19044;DHT22;9654;52.302;8.120;2024-01-15T06:16:15;1.10;99.90
19044;DHT22;9654;52.302;8.120;2024-01-15T06:18:42;1.10;99.90
19044;DHT22;9654;52.302;8.120;2024-01-15T06:21:09;1.10;99.90
19044;DHT22;9654;52.302;8.120;2024-01-15T06:23:38;1.10;99.90
19044;DHT22;9654;52.302;8.120;2024-01-15T06:26:06;1.10;99.90
19044;DHT22;9654;52.302;8.120;2024-01-15T06:28:33;1.10;99.90
19044;DHT22;9654;52.302;8.120;2024-01-15T06:31:00;1.10;99.90
19044;DHT22;9654;52.302;8.120;2024-01-15T06:33:27;1.10;99.90
19044;DHT22;9654;52.302;8.120;2024-01-15T06:35:54;1.10;99.90
19044;DHT22;9654;52.302;8.120;2024-01-15T06:38:21;1.10;99.90
19044;DHT22;9654;52.302;8.120;2024-01-15T06:40:49;1.10;99.90
19044;DHT22;9654;52.302;8.120;2024-01-15T06:43:18;1.10;99.90
19044;DHT22;9654;52.302;8.120;2024-01-15T06:45:45;1.10;99.90
19044;DHT22;9654;52.302;8.120;2024-01-15T06:48:12;1.10;99.90
19044;DHT22;9654;52.302;8.120;2024-01-15T06:50:40;1.10;99.90
19044;DHT22;9654;52.302;8.120;2024-01-15T06:53:07;1.10;99.90
19044;DHT22;9654;52.302;8.120;2024-01-15T06:55:33;1.10;99.90
19044;DHT22;9654;52.302;8.120;2024-01-15T06:58:00;1.10;99.90
19044;DHT22;9654;52.302;8.120;2024-01-15T07:00:29;1.10;99.90
19044;DHT22;9654;52.302;8.120;2024-01-15T07:02:56;1.20;99.90
19044;DHT22;9654;52.302;8.120;2024-01-15T07:05:23;1.10;99.90
19044;DHT22;9654;52.302;8.120;2024-01-15T07:07:50;1.10;99.90
19044;DHT22;9654;52.302;8.120;2024-01-15T07:10:17;1.20;99.90
19044;DHT22;9654;52.302;8.120;2024-01-15T07:12:44;1.10;99.90
19044;DHT22;9654;52.302;8.120;2024-01-15T07:15:11;1.20;99.90
19044;DHT22;9654;52.302;8.120;2024-01-15T07:17:39;1.20;99.90
19044;DHT22;9654;52.302;8.120;2024-01-15T07:20:07;1.10;99.90
19044;DHT22;9654;52.302;8.120;2024-01-15T07:22:35;1.10;99.90
19044;DHT22;9654;52.302;8.120;2024-01-15T07:25:03;1.10;99.90
19044;DHT22;9654;52.302;8.120;2024-01-15T07:27:32;1.10;99.90
19044;DHT22;9654;52.302;8.120;2024-01-15T07:29:59;1.10;99.90
19044;DHT22;9654;52.302;8.120;2024-01-15T07:32:26;1.10;99.90
19044;DHT22;9654;52.302;8.120;2024-01-15T07:34:54;1.10;99.90
19044;DHT22;9654;52.302;8.120;2024-01-15T07:37:21;1.10;99.90
19044;DHT22;9654;52.302;8.120;2024-01-15T07:39:48;1.10;99.90
19044;DHT22;9654;52.302;8.120;2024-01-15T07:42:15;1.10;99.90
19044;DHT22;9654;52.302;8.120;2024-01-15T07:44:42;1.10;99.90
19044;DHT22;9654;52.302;8.120;2024-01-15T07:47:10;1.10;99.90
19044;DHT22;9654;52.302;8.120;2024-01-15T07:49:37;1.10;99.90
19044;DHT22;9654;52.302;8.120;2024-01-15T07:52:05;1.10;99.90
19044;DHT22;9654;52.302;8.120;2024-01-15T07:54:32;1.10;99.90
19044;DHT22;9654;52.302;8.120;2024-01-15T07:57:00;1.10;99.90
19044;DHT22;9654;52.302;8.120;2024-01-15T07:59:28;1.10;99.90
19044;DHT22;9654;52.302;8.120;2024-01-15T08:01:55;1.10;99.90
19044;DHT22;9654;52.302;8.120;2024-01-15T08:04:22;1.10;99.90
19044;DHT22;9654;52.302;8.120;2024-01-15T08:06:49;1.10;99.90
19044;DHT22;9654;52.302;8.120;2024-01-15T08:09:17;1.10;99.90
19044;DHT22;9654;52.302;8.120;2024-01-15T08:11:44;1.10;99.90
19044;DHT22;9654;52.302;8.120;2024-01-15T08:14:11;1.10;99.90
19044;DHT22;9654;52.302;8.120;2024-01-15T08:16:39;1.10;99.90
19044;DHT22;9654;52.302;8.120;2024-01-15T08:19:06;1.10;99.90
19044;DHT22;9654;52.302;8.120;2024-01-15T08:21:33;1.10;99.90
19044;DHT22;9654;52.302;8.120;2024-01-15T08:24:01;1.10;99.90
19044;DHT22;9654;52.302;8.120;2024-01-15T08:26:29;1.00;99.90
19044;DHT22;9654;52.302;8.120;2024-01-15T08:28:56;1.00;99.90
19044;DHT22;9654;52.302;8.120;2024-01-15T08:31:23;1.00;99.90
19044;DHT22;9654;52.302;8.120;2024-01-15T08:33:51;1.00;99.90
19044;DHT22;9654;52.302;8.120;2024-01-15T08:36:18;0.90;99.90
19044;DHT22;9654;52.302;8.120;2024-01-15T08:38:45;0.90;99.90
19044;DHT22;9654;52.302;8.120;2024-01-15T08:41:13;0.90;99.90
19044;DHT22;9654;52.302;8.120;2024-01-15T08:43:41;1.00;99.90
19044;DHT22;9654;52.302;8.120;2024-01-15T08:46:08;1.00;99.90
19044;DHT22;9654;52.302;8.120;2024-01-15T08:48:38;1.00;99.90
19044;DHT22;9654;52.302;8.120;2024-01-15T08:51:05;1.00;99.90
19044;DHT22;9654;52.302;8.120;2024-01-15T08:53:33;1.00;99.90
19044;DHT22;9654;52.302;8.120;2024-01-15T08:56:00;0.90;99.90
19044;DHT22;9654;52.302;8.120;2024-01-15T08:58:29;1.00;99.90
19044;DHT22;9654;52.302;8.120;2024-01-15T09:00:57;1.00;99.90
19044;DHT22;9654;52.302;8.120;2024-01-15T09:03:24;1.00;99.90
19044;DHT22;9654;52.302;8.120;2024-01-15T09:05:51;1.00;99.90
19044;DHT22;9654;52.302;8.120;2024-01-15T09:08:18;0.90;99.90
19044;DHT22;9654;52.302;8.120;2024-01-15T09:10:45;1.00;99.90
19044;DHT22;9654;52.302;8.120;2024-01-15T09:13:12;0.90;99.90
19044;DHT22;9654;52.302;8.120;2024-01-15T09:15:39;1.00;99.90
19044;DHT22;9654;52.302;8.120;2024-01-15T09:18:07;1.00;99.90
19044;DHT22;9654;52.302;8.120;2024-01-15T09:20:34;1.10;99.90
19044;DHT22;9654;52.302;8.120;2024-01-15T09:23:02;1.10;99.90
19044;DHT22;9654;52.302;8.120;2024-01-15T09:25:35;1.10;99.90
19044;DHT22;9654;52.302;8.120;2024-01-15T09:28:20;1.10;99.90
19044;DHT22;9654;52.302;8.120;2024-01-15T09:30:47;1.20;99.90
19044;DHT22;9654;52.302;8.120;2024-01-15T09:33:17;1.20;99.90
19044;DHT22;9654;52.302;8.120;2024-01-15T09:35:44;1.20;99.90
19044;DHT22;9654;52.302;8.120;2024-01-15T09:38:11;1.20;99.90
19044;DHT22;9654;52.302;8.120;2024-01-15T09:40:39;1.20;99.90
19044;DHT22;9654;52.302;8.120;2024-01-15T09:43:10;1.20;99.90
19044;DHT22;9654;52.302;8.120;2024-01-15T09:45:39;1.30;99.90
19044;DHT22;9654;52.302;8.120;2024-01-15T09:48:07;1.30;99.90
19044;DHT22;9654;52.302;8.120;2024-01-15T09:50:36;1.30;99.90
19044;DHT22;9654;52.302;8.120;2024-01-15T09:53:03;1.30;99.90
19044;DHT22;9654;52.302;8.120;2024-01-15T09:55:30;1.40;99.90
19044;DHT22;9654;52.302;8.120;2024-01-15T09:57:59;1.40;99.90
19044;DHT22;9654;52.302;8.120;2024-01-15T10:00:26;1.50;99.90
19044;DHT22;9654;52.302;8.120;2024-01-15T10:02:56;1.40;99.90
19044;DHT22;9654;52.302;8.120;2024-01-15T10:05:23;1.40;99.90
19044;DHT22;9654;52.302;8.120;2024-01-15T10:07:51;1.50;99.90
19044;DHT22;9654;52.302;8.120;2024-01-15T10:10:20;1.50;99.90
19044;DHT22;9654;52.302;8.120;2024-01-15T10:12:47;1.50;99.90
19044;DHT22;9654;52.302;8.120;2024-01-15T10:15:14;1.50;99.90
19044;DHT22;9654;52.302;8.120;2024-01-15T10:17:42;1.60;99.90
19044;DHT22;9654;52.302;8.120;2024-01-15T10:20:11;1.60;99.90
19044;DHT22;9654;52.302;8.120;2024-01-15T10:22:40;1.60;99.90
19044;DHT22;9654;52.302;8.120;2024-01-15T10:25:12;1.70;99.90
19044;DHT22;9654;52.302;8.120;2024-01-15T10:27:42;1.70;99.90
19044;DHT22;9654;52.302;8.120;2024-01-15T10:30:09;1.70;99.90
19044;DHT22;9654;52.302;8.120;2024-01-15T10:32:37;1.70;99.90
19044;DHT22;9654;52.302;8.120;2024-01-15T10:35:04;1.70;99.90
19044;DHT22;9654;52.302;8.120;2024-01-15T10:37:34;1.70;99.90
19044;DHT22;9654;52.302;8.120;2024-01-15T10:40:02;1.60;99.90
19044;DHT22;9654;52.302;8.120;2024-01-15T10:42:41;1.60;99.90
19044;DHT22;9654;52.302;8.120;2024-01-15T10:45:09;1.60;99.90
19044;DHT22;9654;52.302;8.120;2024-01-15T10:47:36;1.60;99.90
19044;DHT22;9654;52.302;8.120;2024-01-15T10:50:04;1.60;99.90
19044;DHT22;9654;52.302;8.120;2024-01-15T10:52:32;1.60;99.90
19044;DHT22;9654;52.302;8.120;2024-01-15T10:55:00;1.60;99.90
19044;DHT22;9654;52.302;8.120;2024-01-15T10:57:27;1.60;99.90
19044;DHT22;9654;52.302;8.120;2024-01-15T10:59:56;1.70;99.90
19044;DHT22;9654;52.302;8.120;2024-01-15T11:02:25;1.70;99.90
19044;DHT22;9654;52.302;8.120;2024-01-15T11:04:52;1.70;99.90
19044;DHT22;9654;52.302;8.120;2024-01-15T11:07:22;1.70;99.90
19044;DHT22;9654;52.302;8.120;2024-01-15T11:09:50;1.80;99.90
19044;DHT22;9654;52.302;8.120;2024-01-15T11:12:17;1.80;99.90
19044;DHT22;9654;52.302;8.120;2024-01-15T11:14:46;1.90;99.90
19044;DHT22;9654;52.302;8.120;2024-01-15T11:17:15;2.00;99.90
19044;DHT22;9654;52.302;8.120;2024-01-15T11:19:44;1.90;99.90
19044;DHT22;9654;52.302;8.120;2024-01-15T11:22:48;1.90;99.90
19044;DHT22;9654;52.302;8.120;2024-01-15T11:25:17;1.90;99.90
19044;DHT22;9654;52.302;8.120;2024-01-15T11:27:47;1.90;99.90
19044;DHT22;9654;52.302;8.120;2024-01-15T11:30:17;2.00;99.90
19044;DHT22;9654;52.302;8.120;2024-01-15T11:32:49;2.00;99.90
19044;DHT22;9654;52.302;8.120;2024-01-15T11:35:16;2.00;99.90
19044;DHT22;9654;52.302;8.120;2024-01-15T11:37:57;1.90;99.90
19044;DHT22;9654;52.302;8.120;2024-01-15T11:40:37;1.90;99.90
19044;DHT22;9654;52.302;8.120;2024-01-15T11:43:05;1.90;99.90
19044;DHT22;9654;52.302;8.120;2024-01-15T11:45:35;1.90;99.90
19044;DHT22;9654;52.302;8.120;2024-01-15T11:48:21;1.90;99.90
19044;DHT22;9654;52.302;8.120;2024-01-15T11:50:50;1.90;99.90
19044;DHT22;9654;52.302;8.120;2024-01-15T11:53:25;1.90;99.90
19044;DHT22;9654;52.302;8.120;2024-01-15T11:55:58;1.90;99.90
19044;DHT22;9654;52.302;8.120;2024-01-15T11:58:25;1.90;99.90
19044;DHT22;9654;52.302;8.120;2024-01-15T12:00:52;1.90;99.90
19044;DHT22;9654;52.302;8.120;2024-01-15T12:03:22;1.90;99.90
19044;DHT22;9654;52.302;8.120;2024-01-15T12:05:49;1.90;99.90
19044;DHT22;9654;52.302;8.120;2024-01-15T12:08:21;1.90;99.90
19044;DHT22;9654;52.302;8.120;2024-01-15T12:10:48;1.90;99.90
19044;DHT22;9654;52.302;8.120;2024-01-15T12:13:15;1.90;99.90
19044;DHT22;9654;52.302;8.120;2024-01-15T12:15:44;2.00;99.90
19044;DHT22;9654;52.302;8.120;2024-01-15T12:18:12;2.00;99.90
19044;DHT22;9654;52.302;8.120;2024-01-15T12:20:41;2.00;99.90
19044;DHT22;9654;52.302;8.120;2024-01-15T12:23:10;2.00;99.90
19044;DHT22;9654;52.302;8.120;2024-01-15T12:25:39;2.00;99.90
19044;DHT22;9654;52.302;8.120;2024-01-15T12:28:06;2.00;99.90
19044;DHT22;9654;52.302;8.120;2024-01-15T12:30:34;1.90;99.90
19044;DHT22;9654;52.302;8.120;2024-01-15T12:33:03;1.90;99.90
19044;DHT22;9654;52.302;8.120;2024-01-15T12:35:30;1.90;99.90
19044;DHT22;9654;52.302;8.120;2024-01-15T12:37:59;1.80;99.90
19044;DHT22;9654;52.302;8.120;2024-01-15T12:40:27;1.80;99.90
19044;DHT22;9654;52.302;8.120;2024-01-15T12:42:55;1.90;99.90
19044;DHT22;9654;52.302;8.120;2024-01-15T12:45:22;1.80;99.90
19044;DHT22;9654;52.302;8.120;2024-01-15T12:47:49;1.70;99.90
19044;DHT22;9654;52.302;8.120;2024-01-15T12:50:17;1.70;99.90
19044;DHT22;9654;52.302;8.120;2024-01-15T12:52:44;1.70;99.90
19044;DHT22;9654;52.302;8.120;2024-01-15T12:55:13;1.70;99.90
19044;DHT22;9654;52.302;8.120;2024-01-15T12:57:40;1.70;99.90
19044;DHT22;9654;52.302;8.120;2024-01-15T13:00:07;1.70;99.90
19044;DHT22;9654;52.302;8.120;2024-01-15T13:02:38;1.80;99.90
19044;DHT22;9654;52.302;8.120;2024-01-15T13:05:06;1.80;99.90
19044;DHT22;9654;52.302;8.120;2024-01-15T13:07:33;1.80;99.90
19044;DHT22;9654;52.302;8.120;2024-01-15T13:10:00;1.90;99.90
19044;DHT22;9654;52.302;8.120;2024-01-15T13:12:29;1.90;99.90
19044;DHT22;9654;52.302;8.120;2024-01-15T13:14:57;1.90;99.90
19044;DHT22;9654;52.302;8.120;2024-01-15T13:17:24;1.90;99.90
19044;DHT22;9654;52.302;8.120;2024-01-15T13:19:51;1.90;99.90
19044;DHT22;9654;52.302;8.120;2024-01-15T13:22:18;1.90;99.90
19044;DHT22;9654;52.302;8.120;2024-01-15T13:24:45;1.90;99.90
19044;DHT22;9654;52.302;8.120;2024-01-15T13:27:12;1.90;99.90
19044;DHT22;9654;52.302;8.120;2024-01-15T13:29:41;1.90;99.90
19044;DHT22;9654;52.302;8.120;2024-01-15T13:32:07;2.00;99.90
19044;DHT22;9654;52.302;8.120;2024-01-15T13:34:35;2.00;99.90
19044;DHT22;9654;52.302;8.120;2024-01-15T13:37:02;2.00;99.90
19044;DHT22;9654;52.302;8.120;2024-01-15T13:39:29;2.10;99.90
19044;DHT22;9654;52.302;8.120;2024-01-15T13:41:58;2.00;99.90
19044;DHT22;9654;52.302;8.120;2024-01-15T13:44:25;2.00;99.90
19044;DHT22;9654;52.302;8.120;2024-01-15T13:46:54;2.00;99.90
19044;DHT22;9654;52.302;8.120;2024-01-15T13:49:22;2.00;99.90
19044;DHT22;9654;52.302;8.120;2024-01-15T13:51:50;1.90;99.90
19044;DHT22;9654;52.302;8.120;2024-01-15T13:54:17;1.80;99.90
19044;DHT22;9654;52.302;8.120;2024-01-15T13:56:46;1.80;99.90
19044;DHT22;9654;52.302;8.120;2024-01-15T13:59:13;1.70;99.90
19044;DHT22;9654;52.302;8.120;2024-01-15T14:01:40;1.70;99.90
19044;DHT22;9654;52.302;8.120;2024-01-15T14:04:08;1.70;99.90
19044;DHT22;9654;52.302;8.120;2024-01-15T14:06:35;1.60;99.90
19044;DHT22;9654;52.302;8.120;2024-01-15T14:09:02;1.60;99.90
19044;DHT22;9654;52.302;8.120;2024-01-15T14:11:30;1.60;99.90
19044;DHT22;9654;52.302;8.120;2024-01-15T14:13:57;1.50;99.90
19044;DHT22;9654;52.302;8.120;2024-01-15T14:16:24;1.50;99.90
19044;DHT22;9654;52.302;8.120;2024-01-15T14:18:50;1.40;99.90
19044;DHT22;9654;52.302;8.120;2024-01-15T14:21:19;1.40;99.90
19044;DHT22;9654;52.302;8.120;2024-01-15T14:23:46;1.40;99.90
19044;DHT22;9654;52.302;8.120;2024-01-15T14:26:13;1.30;99.90
19044;DHT22;9654;52.302;8.120;2024-01-15T14:28:39;1.30;99.90
19044;DHT22;9654;52.302;8.120;2024-01-15T14:31:06;1.20;99.90
19044;DHT22;9654;52.302;8.120;2024-01-15T14:33:33;1.20;99.90
19044;DHT22;9654;52.302;8.120;2024-01-15T14:36:00;1.20;99.90
19044;DHT22;9654;52.302;8.120;2024-01-15T14:38:28;1.10;99.90
19044;DHT22;9654;52.302;8.120;2024-01-15T14:40:55;1.10;99.90
19044;DHT22;9654;52.302;8.120;2024-01-15T14:43:22;1.20;99.90
19044;DHT22;9654;52.302;8.120;2024-01-15T14:45:49;1.20;99.90
19044;DHT22;9654;52.302;8.120;2024-01-15T14:48:16;1.20;99.90
19044;DHT22;9654;52.302;8.120;2024-01-15T14:50:44;1.20;99.90
19044;DHT22;9654;52.302;8.120;2024-01-15T14:53:11;1.10;99.90
19044;DHT22;9654;52.302;8.120;2024-01-15T14:55:39;1.20;99.90
19044;DHT22;9654;52.302;8.120;2024-01-15T14:58:06;1.20;99.90
19044;DHT22;9654;52.302;8.120;2024-01-15T15:00:33;1.20;99.90
19044;DHT22;9654;52.302;8.120;2024-01-15T15:02:59;1.20;99.90
19044;DHT22;9654;52.302;8.120;2024-01-15T15:05:26;1.20;99.90
19044;DHT22;9654;52.302;8.120;2024-01-15T15:07:53;1.10;99.90
19044;DHT22;9654;52.302;8.120;2024-01-15T15:10:21;1.10;99.90
19044;DHT22;9654;52.302;8.120;2024-01-15T15:12:50;1.10;99.90
19044;DHT22;9654;52.302;8.120;2024-01-15T15:15:17;1.10;99.90
19044;DHT22;9654;52.302;8.120;2024-01-15T15:17:43;1.10;99.90
19044;DHT22;9654;52.302;8.120;2024-01-15T15:20:13;1.10;99.90
19044;DHT22;9654;52.302;8.120;2024-01-15T15:22:43;1.10;99.90
19044;DHT22;9654;52.302;8.120;2024-01-15T15:25:10;1.10;99.90
19044;DHT22;9654;52.302;8.120;2024-01-15T15:27:37;1.10;99.90
19044;DHT22;9654;52.302;8.120;2024-01-15T15:30:07;1.10;99.90
19044;DHT22;9654;52.302;8.120;2024-01-15T15:32:34;1.10;99.90
19044;DHT22;9654;52.302;8.120;2024-01-15T15:35:01;1.10;99.90
19044;DHT22;9654;52.302;8.120;2024-01-15T15:37:28;1.10;99.90
19044;DHT22;9654;52.302;8.120;2024-01-15T15:39:55;1.10;99.90
19044;DHT22;9654;52.302;8.120;2024-01-15T15:42:24;1.10;99.90
19044;DHT22;9654;52.302;8.120;2024-01-15T15:44:50;1.00;99.90
19044;DHT22;9654;52.302;8.120;2024-01-15T15:47:20;1.10;99.90
19044;DHT22;9654;52.302;8.120;2024-01-15T15:49:47;1.00;99.90
19044;DHT22;9654;52.302;8.120;2024-01-15T15:52:14;0.90;99.90
19044;DHT22;9654;52.302;8.120;2024-01-15T15:54:41;1.00;99.90
19044;DHT22;9654;52.302;8.120;2024-01-15T15:57:08;1.00;99.90
19044;DHT22;9654;52.302;8.120;2024-01-15T15:59:36;1.00;99.90
19044;DHT22;9654;52.302;8.120;2024-01-15T16:02:03;1.00;99.90
19044;DHT22;9654;52.302;8.120;2024-01-15T16:04:31;0.90;99.90